createdAt,value
2023-03-20T00:01:15.171Z,100955.72
2023-03-20T00:03:43.566Z,100964.00
2023-03-20T00:06:17.676Z,100954.44
2023-03-20T00:08:46.962Z,100956.56
2023-03-20T00:14:16.046Z,100949.38
2023-03-20T00:16:46.365Z,100953.59
2023-03-20T00:19:17.759Z,100942.69
2023-03-20T00:21:48.100Z,100944.25
2023-03-20T00:24:17.801Z,100937.63
2023-03-20T00:26:47.888Z,100937.38
2023-03-20T00:29:24.417Z,100936.28
2023-03-20T00:31:53.203Z,100939.97
2023-03-20T00:34:24.405Z,100926.94
2023-03-20T00:36:53.162Z,100927.81
2023-03-20T00:39:22.092Z,100929.59
2023-03-20T00:41:52.909Z,100937.06
2023-03-20T00:44:26.034Z,100934.19
2023-03-20T00:46:58.363Z,100933.13
2023-03-20T00:49:29.313Z,100922.50
2023-03-20T00:51:58.375Z,100925.16
2023-03-20T00:54:27.097Z,100925.69
2023-03-20T00:56:59.321Z,100919.28
2023-03-20T00:59:33.340Z,100925.66
2023-03-20T01:02:02.852Z,100925.06
2023-03-20T01:04:37.127Z,100916.56
2023-03-20T01:07:08.912Z,100916.03
2023-03-20T01:09:37.422Z,100918.69
2023-03-20T01:12:08.006Z,100918.13
2023-03-20T01:14:38.016Z,100914.88
2023-03-20T01:17:07.071Z,100904.53
2023-03-20T01:19:36.564Z,100915.72
2023-03-20T01:22:05.038Z,100911.19
2023-03-20T01:24:33.378Z,100905.28
2023-03-20T01:27:04.323Z,100907.94
2023-03-20T01:29:32.837Z,100909.31
2023-03-20T01:32:02.775Z,100906.84
2023-03-20T01:34:31.228Z,100902.91
2023-03-20T01:37:00.153Z,100909.50
2023-03-20T01:39:35.137Z,100906.06
2023-03-20T01:42:05.432Z,100907.16
2023-03-20T01:44:35.930Z,100907.88
2023-03-20T01:47:16.103Z,100901.00
2023-03-20T01:50:23.532Z,100903.72
2023-03-20T01:52:56.296Z,100887.97
2023-03-20T01:55:26.408Z,100894.13
2023-03-20T01:57:58.620Z,100893.34
2023-03-20T02:00:27.358Z,100892.56
2023-03-20T02:02:57.882Z,100888.81
2023-03-20T02:05:26.812Z,100886.22
2023-03-20T02:08:07.014Z,100888.03
2023-03-20T02:10:35.616Z,100892.56
2023-03-20T02:13:05.732Z,100885.66
2023-03-20T02:15:35.165Z,100883.81
2023-03-20T02:18:05.191Z,100888.34
2023-03-20T02:20:46.626Z,100878.75
2023-03-20T02:23:44.447Z,100876.06
2023-03-20T02:26:23.553Z,100876.63
2023-03-20T02:29:17.253Z,100876.63
2023-03-20T02:32:15.564Z,100874.22
2023-03-20T02:35:14.395Z,100871.31
2023-03-20T02:38:17.372Z,100871.03
2023-03-20T02:40:51.303Z,100874.50
2023-03-20T02:43:25.741Z,100856.38
2023-03-20T02:45:59.015Z,100857.44
2023-03-20T02:48:37.772Z,100859.59
2023-03-20T02:51:17.365Z,100855.63
2023-03-20T02:53:54.188Z,100857.50
2023-03-20T02:56:31.271Z,100851.66
2023-03-20T02:59:08.926Z,100852.19
2023-03-20T03:01:43.034Z,100850.03
2023-03-20T03:04:16.336Z,100853.22
2023-03-20T03:06:47.979Z,100845.78
2023-03-20T03:09:23.078Z,100845.75
2023-03-20T03:11:55.226Z,100841.25
2023-03-20T03:14:34.660Z,100842.06
2023-03-20T03:17:06.057Z,100846.34
2023-03-20T03:19:36.990Z,100836.78
2023-03-20T03:22:06.358Z,100837.00
2023-03-20T03:24:41.715Z,100836.47
2023-03-20T03:27:17.604Z,100839.44
2023-03-20T03:29:51.509Z,100840.50
2023-03-20T03:32:30.971Z,100833.88
2023-03-20T03:35:00.874Z,100828.28
2023-03-20T03:37:41.290Z,100836.00
2023-03-20T03:40:19.517Z,100836.25
2023-03-20T03:42:57.949Z,100835.22
2023-03-20T03:45:33.466Z,100835.22
2023-03-20T03:48:07.462Z,100839.44
2023-03-20T03:50:46.498Z,100840.28
2023-03-20T03:53:18.047Z,100839.47
2023-03-20T03:55:52.692Z,100855.97
2023-03-20T03:58:24.951Z,100860.50
2023-03-20T04:00:56.098Z,100854.09
2023-03-20T04:03:30.429Z,100857.53
2023-03-20T04:06:00.985Z,100851.44
2023-03-20T04:08:29.276Z,100850.91
2023-03-20T04:10:59.295Z,100857.00
2023-03-20T04:13:27.746Z,100860.72
2023-03-20T04:15:57.536Z,100862.81
2023-03-20T04:18:25.836Z,100870.81
2023-03-20T04:20:54.841Z,100865.47
2023-03-20T04:23:23.282Z,100863.75
2023-03-20T04:25:51.722Z,100864.84
2023-03-20T04:28:21.913Z,100861.16
2023-03-20T04:30:55.005Z,100863.06
2023-03-20T04:33:23.649Z,100863.59
2023-03-20T04:35:51.960Z,100859.59
2023-03-20T04:38:21.833Z,100859.06
2023-03-20T04:40:50.732Z,100866.25
2023-03-20T04:43:20.853Z,100864.63
2023-03-20T04:45:49.314Z,100862.44
2023-03-20T04:48:17.741Z,100868.56
2023-03-20T04:50:48.533Z,100874.69
2023-03-20T04:53:17.337Z,100870.72
2023-03-20T04:55:46.841Z,100877.41
2023-03-20T04:58:15.850Z,100875.72
2023-03-20T05:00:48.136Z,100881.81
2023-03-20T05:03:16.430Z,100876.25
2023-03-20T05:05:44.696Z,100869.38
2023-03-20T05:08:13.112Z,100880.84
2023-03-20T05:10:41.360Z,100881.91
2023-03-20T05:13:09.677Z,100876.03
2023-03-20T05:15:37.978Z,100880.06
2023-03-20T05:18:08.332Z,100878.25
2023-03-20T05:20:36.775Z,100886.16
2023-03-20T05:23:06.386Z,100888.28
2023-03-20T05:25:35.227Z,100889.66
2023-03-20T05:28:03.757Z,100893.38
2023-03-20T05:30:32.675Z,100889.41
2023-03-20T05:33:01.063Z,100884.38
2023-03-20T05:35:30.951Z,100885.97
2023-03-20T05:37:59.407Z,100886.78
2023-03-20T05:40:27.799Z,100884.69
2023-03-20T05:42:56.093Z,100881.00
2023-03-20T05:45:24.563Z,100879.41
2023-03-20T05:47:53.183Z,100878.28
2023-03-20T05:50:21.691Z,100877.47
2023-03-20T05:52:51.772Z,100880.44
2023-03-20T05:55:20.139Z,100874.88
2023-03-20T05:57:48.861Z,100876.47
2023-03-20T06:00:18.071Z,100873.28
2023-03-20T06:02:47.682Z,100880.47
2023-03-20T06:05:16.187Z,100883.94
2023-03-20T06:07:45.205Z,100879.41
2023-03-20T06:10:14.956Z,100881.03
2023-03-20T06:12:43.474Z,100887.69
2023-03-20T06:15:12.778Z,100881.88
2023-03-20T06:17:41.011Z,100880.06
2023-03-20T06:20:11.054Z,100872.06
2023-03-20T06:22:39.504Z,100876.28
2023-03-20T06:25:08.788Z,100880.59
2023-03-20T06:27:38.580Z,100887.53
2023-03-20T06:30:08.480Z,100884.63
2023-03-20T06:32:36.957Z,100888.88
2023-03-20T06:35:07.695Z,100879.03
2023-03-20T06:37:36.413Z,100885.38
2023-03-20T06:40:05.549Z,100884.84
2023-03-20T06:42:33.952Z,100891.75
2023-03-20T06:45:04.123Z,100882.41
2023-03-20T06:47:32.364Z,100884.50
2023-03-20T06:50:00.657Z,100879.94
2023-03-20T06:52:29.463Z,100888.47
2023-03-20T06:54:58.070Z,100875.97
2023-03-20T06:57:26.362Z,100882.69
2023-03-20T06:59:54.841Z,100884.56
2023-03-20T07:02:24.678Z,100895.19
2023-03-20T07:04:53.046Z,100887.19
2023-03-20T07:07:21.553Z,100890.41
2023-03-20T07:09:50.404Z,100895.97
2023-03-20T07:12:20.036Z,100897.06
2023-03-20T07:14:48.374Z,100894.13
2023-03-20T07:17:16.789Z,100890.84
2023-03-20T07:19:46.494Z,100893.78
2023-03-20T07:22:22.344Z,100885.94
2023-03-20T07:24:50.782Z,100889.44
2023-03-20T07:27:19.171Z,100889.50
2023-03-20T07:29:47.589Z,100886.81
2023-03-20T07:32:16.731Z,100888.38
2023-03-20T07:34:47.800Z,100889.47
2023-03-20T07:37:16.077Z,100886.00
2023-03-20T07:39:44.341Z,100894.00
2023-03-20T07:42:13.874Z,100888.91
2023-03-20T07:44:42.153Z,100897.28
2023-03-20T07:47:10.773Z,100898.81
2023-03-20T07:49:40.114Z,100902.88
2023-03-20T07:52:09.940Z,100903.38
2023-03-20T07:54:38.224Z,100902.09
2023-03-20T07:57:06.602Z,100901.81
2023-03-20T07:59:34.911Z,100904.47
2023-03-20T08:02:03.187Z,100883.97
2023-03-20T08:04:31.609Z,100902.09
2023-03-20T08:07:00.141Z,100899.91
2023-03-20T08:09:30.082Z,100899.03
2023-03-20T08:11:58.841Z,100893.66
2023-03-20T08:14:27.313Z,100900.22
2023-03-20T08:17:12.481Z,100891.44
2023-03-20T08:19:42.566Z,100893.72
2023-03-20T08:22:11.966Z,100893.94
2023-03-20T08:24:41.788Z,100888.13
2023-03-20T08:27:10.112Z,100896.50
2023-03-20T08:29:38.622Z,100899.53
2023-03-20T08:32:07.559Z,100897.59
2023-03-20T08:34:36.843Z,100888.91
2023-03-20T08:37:05.757Z,100890.47
2023-03-20T08:39:34.475Z,100896.53
2023-03-20T08:42:04.185Z,100884.50
2023-03-20T08:44:32.485Z,100892.81
2023-03-20T08:47:00.939Z,100891.88
2023-03-20T08:49:29.469Z,100884.72
2023-03-20T08:51:57.830Z,100900.84
2023-03-20T08:54:26.186Z,100893.53
2023-03-20T08:56:54.527Z,100899.38
2023-03-20T08:59:24.422Z,100895.81
2023-03-20T09:01:52.725Z,100899.88
2023-03-20T09:04:21.263Z,100888.38
2023-03-20T09:06:50.536Z,100893.72
2023-03-20T09:09:20.291Z,100892.31
2023-03-20T09:11:49.223Z,100889.94
2023-03-20T09:14:17.937Z,100883.00
2023-03-20T09:16:48.028Z,100882.81
2023-03-20T09:19:16.606Z,100888.00
2023-03-20T09:21:45.119Z,100882.13
2023-03-20T09:24:13.466Z,100890.56
2023-03-20T09:26:42.187Z,100889.78
2023-03-20T09:29:10.722Z,100883.53
2023-03-20T09:31:39.287Z,100881.75
2023-03-20T09:34:10.347Z,100871.09
2023-03-20T09:36:38.894Z,100879.34
2023-03-20T09:39:07.325Z,100881.50
2023-03-20T09:41:52.981Z,100867.94
2023-03-20T09:44:41.962Z,100864.72
2023-03-20T09:47:21.319Z,100861.31
2023-03-20T09:50:02.406Z,100869.00
2023-03-20T09:52:33.670Z,100869.47
2023-03-20T09:55:08.260Z,100861.03
2023-03-20T09:57:41.746Z,100862.75
2023-03-20T10:00:16.676Z,100854.22
2023-03-20T10:02:51.031Z,100849.03
2023-03-20T10:05:25.558Z,100851.41
2023-03-20T10:07:57.146Z,100854.53
2023-03-20T10:10:33.749Z,100848.94
2023-03-20T10:13:16.555Z,100844.34
2023-03-20T10:15:50.478Z,100843.91
2023-03-20T10:18:26.626Z,100844.94
2023-03-20T10:21:01.772Z,100839.69
2023-03-20T10:23:38.157Z,100846.44
2023-03-20T10:26:11.639Z,100835.38
2023-03-20T10:28:47.424Z,100838.03
2023-03-20T10:31:27.685Z,100841.44
2023-03-20T10:34:05.053Z,100838.06
2023-03-20T10:36:52.582Z,100840.97
2023-03-20T10:39:30.417Z,100838.53
2023-03-20T10:42:02.470Z,100847.38
2023-03-20T10:44:34.812Z,100838.31
2023-03-20T10:47:07.185Z,100843.34
2023-03-20T10:49:41.113Z,100833.69
2023-03-20T10:52:16.357Z,100822.38
2023-03-20T10:54:49.621Z,100828.25
2023-03-20T10:57:24.487Z,100830.09
2023-03-20T10:59:54.281Z,100827.81
2023-03-20T11:02:26.507Z,100820.75
2023-03-20T11:04:54.769Z,100817.84
2023-03-20T11:07:28.459Z,100816.50
2023-03-20T11:10:13.283Z,100817.25
2023-03-20T11:12:43.741Z,100814.06
2023-03-20T11:15:24.484Z,100811.34
2023-03-20T11:17:55.258Z,100813.47
2023-03-20T11:20:24.345Z,100818.72
2023-03-20T11:23:00.770Z,100811.09
2023-03-20T11:25:35.170Z,100799.34
2023-03-20T11:28:22.917Z,100804.47
2023-03-20T11:31:04.393Z,100796.16
2023-03-20T11:33:35.239Z,100790.41
2023-03-20T11:36:03.575Z,100797.69
2023-03-20T11:38:33.442Z,100790.97
2023-03-20T11:41:06.567Z,100796.91
2023-03-20T11:43:39.797Z,100789.41
2023-03-20T11:46:14.294Z,100784.25
2023-03-20T11:48:44.509Z,100782.69
2023-03-20T11:51:16.821Z,100777.72
2023-03-20T11:54:02.147Z,100785.94
2023-03-20T11:56:32.797Z,100778.19
2023-03-20T11:59:04.393Z,100780.28
2023-03-20T12:01:44.771Z,100775.03
2023-03-20T12:04:15.148Z,100769.06
2023-03-20T12:06:48.532Z,100778.88
2023-03-20T12:09:35.445Z,100770.16
2023-03-20T12:12:08.760Z,100769.91
2023-03-20T12:14:43.385Z,100758.94
2023-03-20T12:17:31.568Z,100764.84
2023-03-20T12:20:06.947Z,100765.63
2023-03-20T12:22:41.396Z,100743.00
2023-03-20T12:25:23.351Z,100752.59
2023-03-20T12:27:59.326Z,100745.91
2023-03-20T12:30:37.897Z,100738.09
2023-03-20T12:33:13.835Z,100743.16
2023-03-20T12:35:47.934Z,100737.69
2023-03-20T12:38:26.315Z,100738.75
2023-03-20T12:41:01.904Z,100731.19
2023-03-20T12:43:40.490Z,100732.31
2023-03-20T12:46:19.783Z,100735.16
2023-03-20T12:49:08.660Z,100725.28
2023-03-20T12:51:48.406Z,100726.41
2023-03-20T12:54:26.034Z,100728.44
2023-03-20T12:57:19.409Z,100722.03
2023-03-20T13:00:00.110Z,100714.50
2023-03-20T13:02:43.720Z,100714.66
2023-03-20T13:05:28.524Z,100711.19
2023-03-20T13:08:12.799Z,100708.69
2023-03-20T13:10:55.738Z,100705.69
2023-03-20T13:13:33.417Z,100703.47
2023-03-20T13:16:11.585Z,100698.97
2023-03-20T13:18:55.594Z,100705.56
2023-03-20T13:21:31.059Z,100707.94
2023-03-20T13:24:13.069Z,100705.88
2023-03-20T13:26:47.087Z,100707.06
2023-03-20T13:29:27.553Z,100699.53
2023-03-20T13:32:07.375Z,100692.38
2023-03-20T13:34:54.195Z,100693.69
2023-03-20T13:37:28.580Z,100691.13
2023-03-20T13:40:06.116Z,100689.06
2023-03-20T13:42:38.636Z,100683.91
2023-03-20T13:45:21.900Z,100689.13
2023-03-20T13:47:51.465Z,100688.91
2023-03-20T13:50:35.947Z,100686.00
2023-03-20T13:53:14.130Z,100685.53
2023-03-20T13:55:51.532Z,100689.47
2023-03-20T13:58:47.584Z,100688.78
2023-03-20T14:01:23.851Z,100681.91
2023-03-20T14:03:54.281Z,100680.94
2023-03-20T14:06:51.277Z,100678.94
2023-03-20T14:09:31.483Z,100672.34
2023-03-20T14:12:03.550Z,100673.50
2023-03-20T14:14:33.201Z,100676.44
2023-03-20T14:17:15.531Z,100670.59
2023-03-20T14:19:44.015Z,100660.03
2023-03-20T14:22:18.171Z,100666.25
2023-03-20T14:24:52.942Z,100658.91
2023-03-20T14:27:36.830Z,100665.19
2023-03-20T14:30:42.844Z,100670.28
2023-03-20T14:33:31.589Z,100665.56
2023-03-20T14:36:23.083Z,100665.34
2023-03-20T14:39:00.961Z,100662.13
2023-03-20T14:41:37.084Z,100656.56
2023-03-20T14:44:21.003Z,100668.03
2023-03-20T14:46:55.182Z,100662.81
2023-03-20T14:49:47.202Z,100660.63
2023-03-20T14:52:34.945Z,100661.13
2023-03-20T14:55:30.637Z,100670.75
2023-03-20T14:57:59.436Z,100668.50
2023-03-20T15:00:30.923Z,100662.94
2023-03-20T15:03:07.243Z,100669.75
2023-03-20T15:05:39.422Z,100660.53
2023-03-20T15:08:09.855Z,100656.31
2023-03-20T15:10:47.048Z,100656.91
2023-03-20T15:13:17.263Z,100665.25
2023-03-20T15:15:55.511Z,100662.69
2023-03-20T15:18:26.341Z,100660.34
2023-03-20T15:20:57.556Z,100658.25
2023-03-20T15:23:26.808Z,100667.69
2023-03-20T15:25:55.567Z,100661.38
2023-03-20T15:28:26.548Z,100662.72
2023-03-20T15:30:59.649Z,100660.19
2023-03-20T15:33:30.612Z,100664.84
2023-03-20T15:36:08.369Z,100666.16
2023-03-20T15:38:37.169Z,100659.97
2023-03-20T15:41:07.129Z,100661.00
2023-03-20T15:43:38.202Z,100666.25
2023-03-20T15:46:17.957Z,100669.69
2023-03-20T15:48:49.811Z,100677.34
2023-03-20T15:51:22.770Z,100679.22
2023-03-20T15:53:51.295Z,100678.72
2023-03-20T15:56:22.010Z,100672.53
2023-03-20T15:58:53.544Z,100665.06
2023-03-20T16:01:23.832Z,100670.06
2023-03-20T16:03:53.056Z,100676.31
2023-03-20T16:06:25.871Z,100676.69
2023-03-20T16:09:02.625Z,100677.22
2023-03-20T16:11:41.749Z,100672.75
2023-03-20T16:14:14.993Z,100672.00
2023-03-20T16:16:43.575Z,100667.00
2023-03-20T16:19:15.394Z,100666.28
2023-03-20T16:21:50.731Z,100671.63
2023-03-20T16:24:26.020Z,100673.97
2023-03-20T16:26:55.591Z,100672.44
2023-03-20T16:29:26.486Z,100673.84
2023-03-20T16:31:58.933Z,100677.59
2023-03-20T16:34:32.484Z,100672.81
2023-03-20T16:37:07.589Z,100674.94
2023-03-20T16:39:36.000Z,100672.78
2023-03-20T16:42:20.685Z,100679.66
2023-03-20T16:44:49.093Z,100677.25
2023-03-20T16:47:20.358Z,100678.53
2023-03-20T16:50:13.622Z,100675.88
2023-03-20T16:52:47.622Z,100674.81
2023-03-20T16:55:20.007Z,100696.13
2023-03-20T16:57:51.565Z,100689.19
2023-03-20T17:00:29.241Z,100685.44
2023-03-20T17:03:18.669Z,100695.03
2023-03-20T17:05:51.289Z,100690.25
2023-03-20T17:08:29.524Z,100693.19
2023-03-20T17:11:00.596Z,100692.91
2023-03-20T17:13:29.325Z,100687.59
2023-03-20T17:15:59.307Z,100700.16
2023-03-20T17:18:29.300Z,100700.72
2023-03-20T17:20:57.692Z,100697.81
2023-03-20T17:23:27.447Z,100698.09
2023-03-20T17:25:55.766Z,100699.47
2023-03-20T17:28:36.084Z,100695.72
2023-03-20T17:31:05.522Z,100700.28
2023-03-20T17:33:34.464Z,100699.19
2023-03-20T17:36:02.927Z,100700.00
2023-03-20T17:38:32.804Z,100694.44
2023-03-20T17:41:01.298Z,100692.88
2023-03-20T17:43:29.853Z,100684.09
2023-03-20T17:45:59.621Z,100692.09
2023-03-20T17:48:27.952Z,100695.31
2023-03-20T17:50:56.272Z,100690.25
2023-03-20T17:53:29.052Z,100695.03
2023-03-20T17:55:59.125Z,100686.25
2023-03-20T17:58:27.342Z,100686.25
2023-03-20T18:00:56.350Z,100682.53
2023-03-20T18:03:24.827Z,100684.94
2023-03-20T18:05:53.454Z,100682.28
2023-03-20T18:08:23.710Z,100686.28
2023-03-20T18:10:53.804Z,100685.19
2023-03-20T18:13:25.675Z,100684.69
2023-03-20T18:15:56.204Z,100687.88
2023-03-20T18:18:24.730Z,100677.50
2023-03-20T18:20:54.965Z,100680.97
2023-03-20T18:23:23.221Z,100683.84
2023-03-20T18:25:51.588Z,100675.09
2023-03-20T18:28:23.338Z,100676.19
2023-03-20T18:30:53.285Z,100678.84
2023-03-20T18:33:26.791Z,100683.09
2023-03-20T18:35:55.682Z,100675.31
2023-03-20T18:38:25.789Z,100687.59
2023-03-20T18:40:54.273Z,100686.78
2023-03-20T18:43:22.796Z,100688.88
2023-03-20T18:45:53.885Z,100692.84
2023-03-20T18:48:22.343Z,100697.13
2023-03-20T18:50:52.838Z,100696.81
2023-03-20T18:53:21.147Z,100689.88
2023-03-20T18:55:49.521Z,100687.44
2023-03-20T18:58:22.558Z,100688.81
2023-03-20T19:00:54.055Z,100694.09
2023-03-20T19:03:24.694Z,100691.16
2023-03-20T19:05:56.341Z,100698.06
2023-03-20T19:08:25.122Z,100694.59
2023-03-20T19:10:53.620Z,100701.81
2023-03-20T19:13:24.832Z,100693.03
2023-03-20T19:15:54.920Z,100696.47
2023-03-20T19:18:24.956Z,100694.59
2023-03-20T19:20:55.739Z,100693.28
2023-03-20T19:23:25.942Z,100701.78
2023-03-20T19:25:56.415Z,100686.56
2023-03-20T19:28:38.810Z,100691.91
2023-03-20T19:31:10.444Z,100688.97
2023-03-20T19:33:40.835Z,100694.53
2023-03-20T19:36:23.518Z,100686.56
2023-03-20T19:39:03.218Z,100691.84
2023-03-20T19:41:38.226Z,100690.03
2023-03-20T19:44:07.164Z,100690.28
2023-03-20T19:46:40.594Z,100687.66
2023-03-20T19:49:19.574Z,100694.56
2023-03-20T19:51:48.702Z,100691.34
2023-03-20T19:54:17.345Z,100688.97
2023-03-20T19:56:45.802Z,100686.56
2023-03-20T19:59:16.569Z,100681.47
2023-03-20T20:01:47.220Z,100674.25
2023-03-20T20:04:16.385Z,100678.28
2023-03-20T20:06:47.445Z,100676.94
2023-03-20T20:09:16.353Z,100679.59
2023-03-20T20:11:44.953Z,100672.19
2023-03-20T20:14:15.293Z,100671.13
2023-03-20T20:16:46.782Z,100673.81
2023-03-20T20:19:15.404Z,100683.41
2023-03-20T20:22:19.485Z,100679.16
2023-03-20T20:24:32.507Z,100687.66
2023-03-20T20:27:16.403Z,100686.59
2023-03-20T20:29:49.343Z,100683.09
2023-03-20T20:32:22.100Z,100674.81
2023-03-20T20:38:27.102Z,100675.09
2023-03-20T20:40:30.815Z,100675.91
2023-03-20T20:43:01.626Z,100672.44
2023-03-20T20:45:31.793Z,100666.78
2023-03-20T20:48:03.321Z,100662.03
2023-03-20T20:50:33.729Z,100668.19
2023-03-20T20:53:02.261Z,100665.47
2023-03-20T20:55:32.316Z,100659.38
2023-03-20T20:58:01.423Z,100666.53
2023-03-20T21:00:47.314Z,100666.28
2023-03-20T21:03:20.243Z,100668.19
2023-03-20T21:05:48.768Z,100667.63
2023-03-20T21:08:18.649Z,100668.94
2023-03-20T21:10:47.524Z,100669.19
2023-03-20T21:13:16.408Z,100656.09
2023-03-20T21:15:45.858Z,100665.72
2023-03-20T21:18:14.647Z,100660.94
2023-03-20T21:20:44.372Z,100665.25
2023-03-20T21:23:12.878Z,100664.22
2023-03-20T21:25:44.268Z,100668.50
2023-03-20T21:28:14.977Z,100667.72
2023-03-20T21:31:04.201Z,100656.84
2023-03-20T21:33:33.499Z,100657.38
2023-03-20T21:36:04.338Z,100652.59
2023-03-20T21:41:21.388Z,100640.94
2023-03-20T21:43:50.028Z,100642.53
2023-03-20T21:46:58.744Z,100645.22
2023-03-20T21:49:58.489Z,100641.81
2023-03-20T21:55:19.411Z,100638.09
2023-03-20T21:58:21.235Z,100631.47
2023-03-20T22:03:29.081Z,100626.16
2023-03-20T22:09:52.168Z,100627.53
2023-03-20T22:12:23.020Z,100618.19
2023-03-20T22:23:58.434Z,100632.59
2023-03-20T22:34:54.318Z,100633.09
2023-03-20T22:37:53.352Z,100628.56
2023-03-20T22:43:05.211Z,100618.75
2023-03-20T22:45:42.616Z,100627.25
2023-03-20T22:48:12.887Z,100630.44
2023-03-20T22:50:42.248Z,100624.84
2023-03-20T22:53:11.350Z,100627.78
2023-03-20T22:55:44.139Z,100626.69
2023-03-20T22:58:14.714Z,100618.19
2023-03-20T23:00:43.850Z,100625.66
2023-03-20T23:03:29.694Z,100619.25
2023-03-20T23:06:07.621Z,100610.22
2023-03-20T23:08:48.133Z,100609.16
2023-03-20T23:11:20.077Z,100603.59
2023-03-20T23:13:50.617Z,100600.13
2023-03-20T23:16:19.425Z,100613.44
2023-03-20T23:18:47.964Z,100605.72
2023-03-20T23:21:16.315Z,100601.19
2023-03-20T23:23:44.964Z,100600.69
2023-03-20T23:26:14.915Z,100600.94
2023-03-20T23:28:45.238Z,100595.34
2023-03-20T23:31:18.022Z,100587.91
2023-03-20T23:33:50.601Z,100596.38
2023-03-20T23:36:34.967Z,100591.63
2023-03-20T23:39:07.797Z,100587.88
2023-03-20T23:44:26.940Z,100589.75
2023-03-20T23:46:56.689Z,100593.19
2023-03-20T23:49:25.234Z,100595.31
2023-03-20T23:51:53.678Z,100588.41
2023-03-20T23:54:22.353Z,100588.13
2023-03-20T23:56:50.695Z,100580.69
2023-03-20T23:59:22.142Z,100574.56
